Indus, Minnesota
Current Conditions -  °F | °C
As of 4:07 AM on Wednesday 26 Nov 2014 (Local Time) from KBDE Reporting Station
Few Clouds Few Clouds  
Wind Chill: -9°   Ceiling: Unl
Heat Index:   Visibility: 10mi
Dew Point:   Wind: 10mph
Humidity: 83%   Direction: 340°NNW
Pressure: 30.18"   Gusts: NA
Location:  48.6069°N, 94.172°W
Report Text: KBDE 261007Z AUTO 34009KT 10SM FEW007 M14/M17 A3018 RMK AO2 T11441167 TSNO
Loading
Personal Weather Stations






























Interactive Weather Map New forecast layout! Learn more

10-Day Weather Forecast

Advertisements
Track Severe Weather on mobile